sensor_id;sensor_type;location;lat;lon;timestamp;temperature;humidity
19561;DHT22;9927;47.792;10.616;2023-07-22T00:00:03;16.90;99.90
19561;DHT22;9927;47.792;10.616;2023-07-22T00:02:33;16.90;99.90
19561;DHT22;9927;47.792;10.616;2023-07-22T00:05:00;17.00;99.90
19561;DHT22;9927;47.792;10.616;2023-07-22T00:07:27;17.00;99.90
19561;DHT22;9927;47.792;10.616;2023-07-22T00:09:55;17.00;99.90
19561;DHT22;9927;47.792;10.616;2023-07-22T00:12:22;17.00;99.90
19561;DHT22;9927;47.792;10.616;2023-07-22T00:14:52;17.00;99.90
19561;DHT22;9927;47.792;10.616;2023-07-22T00:17:20;17.00;99.90
19561;DHT22;9927;47.792;10.616;2023-07-22T00:19:51;17.00;99.90
19561;DHT22;9927;47.792;10.616;2023-07-22T00:22:18;17.00;99.90
19561;DHT22;9927;47.792;10.616;2023-07-22T00:24:47;16.90;99.90
19561;DHT22;9927;47.792;10.616;2023-07-22T00:27:14;16.80;99.90
19561;DHT22;9927;47.792;10.616;2023-07-22T00:29:42;16.70;99.90
19561;DHT22;9927;47.792;10.616;2023-07-22T00:32:09;16.70;99.90
19561;DHT22;9927;47.792;10.616;2023-07-22T00:34:36;16.80;99.90
19561;DHT22;9927;47.792;10.616;2023-07-22T00:37:06;16.80;99.90
19561;DHT22;9927;47.792;10.616;2023-07-22T00:39:33;16.80;99.90
19561;DHT22;9927;47.792;10.616;2023-07-22T00:42:01;16.80;99.90
19561;DHT22;9927;47.792;10.616;2023-07-22T00:44:28;16.80;99.90
19561;DHT22;9927;47.792;10.616;2023-07-22T00:46:57;16.90;99.90
19561;DHT22;9927;47.792;10.616;2023-07-22T00:49:26;16.90;99.90
19561;DHT22;9927;47.792;10.616;2023-07-22T00:51:53;16.90;99.90
19561;DHT22;9927;47.792;10.616;2023-07-22T00:54:20;16.90;99.90
19561;DHT22;9927;47.792;10.616;2023-07-22T00:56:47;16.80;99.90
19561;DHT22;9927;47.792;10.616;2023-07-22T00:59:16;16.70;99.90
19561;DHT22;9927;47.792;10.616;2023-07-22T01:01:43;16.60;99.90
19561;DHT22;9927;47.792;10.616;2023-07-22T01:04:14;16.70;99.90
19561;DHT22;9927;47.792;10.616;2023-07-22T01:06:44;16.60;99.90
19561;DHT22;9927;47.792;10.616;2023-07-22T01:09:11;16.60;99.90
19561;DHT22;9927;47.792;10.616;2023-07-22T01:11:38;16.60;99.90
19561;DHT22;9927;47.792;10.616;2023-07-22T01:14:06;16.60;99.90
19561;DHT22;9927;47.792;10.616;2023-07-22T01:16:35;16.60;99.90
19561;DHT22;9927;47.792;10.616;2023-07-22T01:19:03;16.60;99.90
19561;DHT22;9927;47.792;10.616;2023-07-22T01:21:32;16.60;99.90
19561;DHT22;9927;47.792;10.616;2023-07-22T01:24:00;16.70;99.90
19561;DHT22;9927;47.792;10.616;2023-07-22T01:26:27;16.70;99.90
19561;DHT22;9927;47.792;10.616;2023-07-22T01:29:06;16.60;99.90
19561;DHT22;9927;47.792;10.616;2023-07-22T01:31:35;16.60;99.90
19561;DHT22;9927;47.792;10.616;2023-07-22T01:34:05;16.50;99.90
19561;DHT22;9927;47.792;10.616;2023-07-22T01:36:32;16.50;99.90
19561;DHT22;9927;47.792;10.616;2023-07-22T01:39:00;16.50;99.90
19561;DHT22;9927;47.792;10.616;2023-07-22T01:41:27;16.50;99.90
19561;DHT22;9927;47.792;10.616;2023-07-22T01:43:55;16.40;99.90
19561;DHT22;9927;47.792;10.616;2023-07-22T01:46:22;16.30;99.90
19561;DHT22;9927;47.792;10.616;2023-07-22T01:48:49;16.40;99.90
19561;DHT22;9927;47.792;10.616;2023-07-22T01:51:16;16.40;99.90
19561;DHT22;9927;47.792;10.616;2023-07-22T01:53:44;16.30;99.90
19561;DHT22;9927;47.792;10.616;2023-07-22T01:56:12;16.40;99.90
19561;DHT22;9927;47.792;10.616;2023-07-22T01:58:39;16.40;99.90
19561;DHT22;9927;47.792;10.616;2023-07-22T02:01:06;16.30;99.90
19561;DHT22;9927;47.792;10.616;2023-07-22T02:03:34;16.30;99.90
19561;DHT22;9927;47.792;10.616;2023-07-22T02:06:05;16.40;99.90
19561;DHT22;9927;47.792;10.616;2023-07-22T02:08:32;16.40;99.90
19561;DHT22;9927;47.792;10.616;2023-07-22T02:11:04;16.40;99.90
19561;DHT22;9927;47.792;10.616;2023-07-22T02:13:32;16.40;99.90
19561;DHT22;9927;47.792;10.616;2023-07-22T02:16:00;16.40;99.90
19561;DHT22;9927;47.792;10.616;2023-07-22T02:18:29;16.40;99.90
19561;DHT22;9927;47.792;10.616;2023-07-22T02:20:57;16.40;99.90
19561;DHT22;9927;47.792;10.616;2023-07-22T02:23:24;16.30;99.90
19561;DHT22;9927;47.792;10.616;2023-07-22T02:25:53;16.30;99.90
19561;DHT22;9927;47.792;10.616;2023-07-22T02:28:21;16.20;99.90
19561;DHT22;9927;47.792;10.616;2023-07-22T02:30:49;16.20;99.90
19561;DHT22;9927;47.792;10.616;2023-07-22T02:33:20;16.30;99.90
19561;DHT22;9927;47.792;10.616;2023-07-22T02:35:48;16.30;99.90
19561;DHT22;9927;47.792;10.616;2023-07-22T02:38:16;16.30;99.90
19561;DHT22;9927;47.792;10.616;2023-07-22T02:40:43;16.30;99.90
19561;DHT22;9927;47.792;10.616;2023-07-22T02:43:10;16.30;99.90
19561;DHT22;9927;47.792;10.616;2023-07-22T02:45:38;16.30;99.90
19561;DHT22;9927;47.792;10.616;2023-07-22T02:48:05;16.20;99.90
19561;DHT22;9927;47.792;10.616;2023-07-22T02:50:32;16.20;99.90
19561;DHT22;9927;47.792;10.616;2023-07-22T02:52:59;16.00;99.90
19561;DHT22;9927;47.792;10.616;2023-07-22T02:55:28;15.90;99.90
19561;DHT22;9927;47.792;10.616;2023-07-22T02:57:56;15.80;99.90
19561;DHT22;9927;47.792;10.616;2023-07-22T03:00:23;15.80;99.90
19561;DHT22;9927;47.792;10.616;2023-07-22T03:02:52;15.80;99.90
19561;DHT22;9927;47.792;10.616;2023-07-22T03:05:20;15.80;99.90
19561;DHT22;9927;47.792;10.616;2023-07-22T03:07:48;15.70;99.90
19561;DHT22;9927;47.792;10.616;2023-07-22T03:10:15;15.70;99.90
19561;DHT22;9927;47.792;10.616;2023-07-22T03:12:42;15.70;99.90
19561;DHT22;9927;47.792;10.616;2023-07-22T03:15:10;15.70;99.90
19561;DHT22;9927;47.792;10.616;2023-07-22T03:17:40;15.70;99.90
19561;DHT22;9927;47.792;10.616;2023-07-22T03:20:09;15.70;99.90
19561;DHT22;9927;47.792;10.616;2023-07-22T03:22:46;15.70;99.90
19561;DHT22;9927;47.792;10.616;2023-07-22T03:25:14;15.80;99.90
19561;DHT22;9927;47.792;10.616;2023-07-22T03:27:44;15.80;99.90
19561;DHT22;9927;47.792;10.616;2023-07-22T03:30:16;15.70;99.90
19561;DHT22;9927;47.792;10.616;2023-07-22T03:32:48;15.70;99.90
19561;DHT22;9927;47.792;10.616;2023-07-22T03:35:17;15.80;99.90
19561;DHT22;9927;47.792;10.616;2023-07-22T03:37:46;15.80;99.90
19561;DHT22;9927;47.792;10.616;2023-07-22T03:40:13;15.70;99.90
19561;DHT22;9927;47.792;10.616;2023-07-22T03:43:01;15.60;99.90
19561;DHT22;9927;47.792;10.616;2023-07-22T03:45:28;15.70;99.90
19561;DHT22;9927;47.792;10.616;2023-07-22T03:47:59;15.60;99.90
19561;DHT22;9927;47.792;10.616;2023-07-22T03:50:28;15.70;99.90
19561;DHT22;9927;47.792;10.616;2023-07-22T03:52:55;15.60;99.90
19561;DHT22;9927;47.792;10.616;2023-07-22T03:55:22;15.60;99.90
19561;DHT22;9927;47.792;10.616;2023-07-22T03:57:50;15.40;99.90
19561;DHT22;9927;47.792;10.616;2023-07-22T04:00:17;15.50;99.90
19561;DHT22;9927;47.792;10.616;2023-07-22T04:02:45;15.40;99.90
19561;DHT22;9927;47.792;10.616;2023-07-22T04:05:12;15.40;99.90
19561;DHT22;9927;47.792;10.616;2023-07-22T04:07:39;15.40;99.90
19561;DHT22;9927;47.792;10.616;2023-07-22T04:10:07;15.40;99.90
19561;DHT22;9927;47.792;10.616;2023-07-22T04:12:34;15.40;99.90
19561;DHT22;9927;47.792;10.616;2023-07-22T04:15:02;15.50;99.90
19561;DHT22;9927;47.792;10.616;2023-07-22T04:17:30;15.60;99.90
19561;DHT22;9927;47.792;10.616;2023-07-22T04:19:57;15.80;99.90
19561;DHT22;9927;47.792;10.616;2023-07-22T04:22:24;15.90;99.90
19561;DHT22;9927;47.792;10.616;2023-07-22T04:24:52;15.90;99.90
19561;DHT22;9927;47.792;10.616;2023-07-22T04:27:19;15.90;99.90
19561;DHT22;9927;47.792;10.616;2023-07-22T04:29:47;16.00;99.90
19561;DHT22;9927;47.792;10.616;2023-07-22T04:32:14;16.00;99.90
19561;DHT22;9927;47.792;10.616;2023-07-22T04:34:41;16.00;99.90
19561;DHT22;9927;47.792;10.616;2023-07-22T04:37:09;16.20;99.90
19561;DHT22;9927;47.792;10.616;2023-07-22T04:39:37;16.30;99.90
19561;DHT22;9927;47.792;10.616;2023-07-22T04:42:04;16.30;99.90
19561;DHT22;9927;47.792;10.616;2023-07-22T04:44:31;16.40;99.90
19561;DHT22;9927;47.792;10.616;2023-07-22T04:46:59;16.50;99.90
19561;DHT22;9927;47.792;10.616;2023-07-22T04:49:27;16.60;99.90
19561;DHT22;9927;47.792;10.616;2023-07-22T04:51:54;16.60;99.90
19561;DHT22;9927;47.792;10.616;2023-07-22T04:54:21;16.80;99.90
19561;DHT22;9927;47.792;10.616;2023-07-22T04:56:48;16.60;99.90
19561;DHT22;9927;47.792;10.616;2023-07-22T04:59:16;16.70;99.90
19561;DHT22;9927;47.792;10.616;2023-07-22T05:01:43;16.60;99.90
19561;DHT22;9927;47.792;10.616;2023-07-22T05:04:10;16.60;99.90
19561;DHT22;9927;47.792;10.616;2023-07-22T05:06:38;16.50;99.90
19561;DHT22;9927;47.792;10.616;2023-07-22T05:09:05;16.50;99.90
19561;DHT22;9927;47.792;10.616;2023-07-22T05:11:32;16.50;99.90
19561;DHT22;9927;47.792;10.616;2023-07-22T05:13:59;16.50;99.90
19561;DHT22;9927;47.792;10.616;2023-07-22T05:16:27;16.60;99.90
19561;DHT22;9927;47.792;10.616;2023-07-22T05:18:54;16.80;99.90
19561;DHT22;9927;47.792;10.616;2023-07-22T05:21:21;16.80;99.90
19561;DHT22;9927;47.792;10.616;2023-07-22T05:23:49;17.00;99.90
19561;DHT22;9927;47.792;10.616;2023-07-22T05:26:16;17.20;99.90
19561;DHT22;9927;47.792;10.616;2023-07-22T05:28:43;17.10;99.90
19561;DHT22;9927;47.792;10.616;2023-07-22T05:31:10;17.40;99.90
19561;DHT22;9927;47.792;10.616;2023-07-22T05:33:39;17.60;99.90
19561;DHT22;9927;47.792;10.616;2023-07-22T05:36:06;17.80;99.90
19561;DHT22;9927;47.792;10.616;2023-07-22T05:38:33;17.80;99.90
19561;DHT22;9927;47.792;10.616;2023-07-22T05:41:00;18.00;99.90
19561;DHT22;9927;47.792;10.616;2023-07-22T05:43:28;18.10;99.90
19561;DHT22;9927;47.792;10.616;2023-07-22T05:45:55;18.20;99.90
19561;DHT22;9927;47.792;10.616;2023-07-22T05:48:22;18.40;99.90
19561;DHT22;9927;47.792;10.616;2023-07-22T05:50:49;18.70;99.90
19561;DHT22;9927;47.792;10.616;2023-07-22T05:53:17;18.60;99.90
19561;DHT22;9927;47.792;10.616;2023-07-22T05:55:44;18.90;99.90
19561;DHT22;9927;47.792;10.616;2023-07-22T05:58:17;19.00;99.90
19561;DHT22;9927;47.792;10.616;2023-07-22T06:00:45;18.70;99.90
19561;DHT22;9927;47.792;10.616;2023-07-22T06:03:13;18.70;99.90
19561;DHT22;9927;47.792;10.616;2023-07-22T06:05:41;18.80;99.90
19561;DHT22;9927;47.792;10.616;2023-07-22T06:08:08;18.90;99.90
19561;DHT22;9927;47.792;10.616;2023-07-22T06:10:35;18.80;99.90
19561;DHT22;9927;47.792;10.616;2023-07-22T06:13:05;18.90;99.90
19561;DHT22;9927;47.792;10.616;2023-07-22T06:15:33;19.10;99.90
19561;DHT22;9927;47.792;10.616;2023-07-22T06:18:00;19.00;99.90
19561;DHT22;9927;47.792;10.616;2023-07-22T06:20:28;18.90;99.90
19561;DHT22;9927;47.792;10.616;2023-07-22T06:22:56;18.90;99.90
19561;DHT22;9927;47.792;10.616;2023-07-22T06:25:23;19.10;99.90
19561;DHT22;9927;47.792;10.616;2023-07-22T06:27:50;19.50;99.90
19561;DHT22;9927;47.792;10.616;2023-07-22T06:30:18;19.70;99.90
19561;DHT22;9927;47.792;10.616;2023-07-22T06:32:45;20.30;99.90
19561;DHT22;9927;47.792;10.616;2023-07-22T06:35:13;21.10;99.90
19561;DHT22;9927;47.792;10.616;2023-07-22T06:37:40;21.90;99.90
19561;DHT22;9927;47.792;10.616;2023-07-22T06:40:07;21.90;99.90
19561;DHT22;9927;47.792;10.616;2023-07-22T06:42:35;21.10;99.90
19561;DHT22;9927;47.792;10.616;2023-07-22T06:45:03;21.10;99.90
19561;DHT22;9927;47.792;10.616;2023-07-22T06:47:30;21.30;99.90
19561;DHT22;9927;47.792;10.616;2023-07-22T06:49:57;21.20;99.90
19561;DHT22;9927;47.792;10.616;2023-07-22T06:52:25;21.80;99.90
19561;DHT22;9927;47.792;10.616;2023-07-22T06:54:52;22.10;99.90
19561;DHT22;9927;47.792;10.616;2023-07-22T06:57:19;22.50;99.90
19561;DHT22;9927;47.792;10.616;2023-07-22T06:59:47;22.70;99.90
19561;DHT22;9927;47.792;10.616;2023-07-22T07:02:14;22.70;99.90
19561;DHT22;9927;47.792;10.616;2023-07-22T07:04:42;22.50;99.90
19561;DHT22;9927;47.792;10.616;2023-07-22T07:07:09;22.30;99.90
19561;DHT22;9927;47.792;10.616;2023-07-22T07:09:36;22.10;99.90
19561;DHT22;9927;47.792;10.616;2023-07-22T07:12:04;21.90;99.90
19561;DHT22;9927;47.792;10.616;2023-07-22T07:14:32;22.00;99.90
19561;DHT22;9927;47.792;10.616;2023-07-22T07:17:01;22.30;99.90
19561;DHT22;9927;47.792;10.616;2023-07-22T07:19:28;22.70;99.90
19561;DHT22;9927;47.792;10.616;2023-07-22T07:21:55;23.10;99.90
19561;DHT22;9927;47.792;10.616;2023-07-22T07:24:23;23.70;99.90
19561;DHT22;9927;47.792;10.616;2023-07-22T07:26:50;24.70;99.90
19561;DHT22;9927;47.792;10.616;2023-07-22T07:29:17;24.50;99.90
19561;DHT22;9927;47.792;10.616;2023-07-22T07:32:04;25.00;99.90
19561;DHT22;9927;47.792;10.616;2023-07-22T07:34:33;25.40;99.90
19561;DHT22;9927;47.792;10.616;2023-07-22T07:37:00;25.90;99.60
19561;DHT22;9927;47.792;10.616;2023-07-22T07:39:28;26.00;97.90
19561;DHT22;9927;47.792;10.616;2023-07-22T07:41:56;25.50;97.50
19561;DHT22;9927;47.792;10.616;2023-07-22T07:44:23;25.60;96.80
19561;DHT22;9927;47.792;10.616;2023-07-22T07:46:50;25.50;95.50
19561;DHT22;9927;47.792;10.616;2023-07-22T07:49:17;25.70;95.60
19561;DHT22;9927;47.792;10.616;2023-07-22T07:51:45;26.50;95.30
19561;DHT22;9927;47.792;10.616;2023-07-22T07:54:12;26.70;92.40
19561;DHT22;9927;47.792;10.616;2023-07-22T07:56:39;26.70;91.30
19561;DHT22;9927;47.792;10.616;2023-07-22T07:59:06;26.10;91.70
19561;DHT22;9927;47.792;10.616;2023-07-22T08:01:36;26.10;92.90
19561;DHT22;9927;47.792;10.616;2023-07-22T08:04:11;26.60;91.00
19561;DHT22;9927;47.792;10.616;2023-07-22T08:06:38;27.40;90.50
19561;DHT22;9927;47.792;10.616;2023-07-22T08:09:06;27.80;90.60
19561;DHT22;9927;47.792;10.616;2023-07-22T08:11:33;28.20;89.30
19561;DHT22;9927;47.792;10.616;2023-07-22T08:14:00;28.50;86.60
19561;DHT22;9927;47.792;10.616;2023-07-22T08:16:28;29.30;81.90
19561;DHT22;9927;47.792;10.616;2023-07-22T08:18:56;28.70;84.40
19561;DHT22;9927;47.792;10.616;2023-07-22T08:21:23;29.00;78.80
19561;DHT22;9927;47.792;10.616;2023-07-22T08:23:51;29.00;77.50
19561;DHT22;9927;47.792;10.616;2023-07-22T08:26:18;29.30;76.80
19561;DHT22;9927;47.792;10.616;2023-07-22T08:28:48;29.20;77.40
19561;DHT22;9927;47.792;10.616;2023-07-22T08:31:15;28.70;75.80
19561;DHT22;9927;47.792;10.616;2023-07-22T08:33:42;28.00;74.80
19561;DHT22;9927;47.792;10.616;2023-07-22T08:36:10;27.90;78.60
19561;DHT22;9927;47.792;10.616;2023-07-22T08:38:37;28.40;78.20
19561;DHT22;9927;47.792;10.616;2023-07-22T08:41:05;28.30;76.80
19561;DHT22;9927;47.792;10.616;2023-07-22T08:43:34;28.70;78.60
19561;DHT22;9927;47.792;10.616;2023-07-22T08:46:05;28.80;76.70
19561;DHT22;9927;47.792;10.616;2023-07-22T08:48:34;28.40;72.00
19561;DHT22;9927;47.792;10.616;2023-07-22T08:51:16;28.60;74.00
19561;DHT22;9927;47.792;10.616;2023-07-22T08:53:45;29.80;76.20
19561;DHT22;9927;47.792;10.616;2023-07-22T08:56:31;30.40;73.10
19561;DHT22;9927;47.792;10.616;2023-07-22T08:59:00;30.60;69.10
19561;DHT22;9927;47.792;10.616;2023-07-22T09:01:27;30.70;71.40
19561;DHT22;9927;47.792;10.616;2023-07-22T09:03:55;30.40;70.00
19561;DHT22;9927;47.792;10.616;2023-07-22T09:06:25;30.10;67.20
19561;DHT22;9927;47.792;10.616;2023-07-22T09:08:53;29.70;72.30
19561;DHT22;9927;47.792;10.616;2023-07-22T09:11:21;29.70;66.70
19561;DHT22;9927;47.792;10.616;2023-07-22T09:13:48;28.80;67.20
19561;DHT22;9927;47.792;10.616;2023-07-22T09:16:17;28.90;68.80
19561;DHT22;9927;47.792;10.616;2023-07-22T09:18:45;28.90;71.30
19561;DHT22;9927;47.792;10.616;2023-07-22T09:21:12;29.10;70.60
19561;DHT22;9927;47.792;10.616;2023-07-22T09:23:40;28.40;71.90
19561;DHT22;9927;47.792;10.616;2023-07-22T09:26:14;28.50;71.40
19561;DHT22;9927;47.792;10.616;2023-07-22T09:28:52;28.20;70.80
19561;DHT22;9927;47.792;10.616;2023-07-22T09:31:23;27.80;71.30
19561;DHT22;9927;47.792;10.616;2023-07-22T09:33:52;28.00;76.30
19561;DHT22;9927;47.792;10.616;2023-07-22T09:36:22;27.70;72.40
19561;DHT22;9927;47.792;10.616;2023-07-22T09:39:02;27.30;71.40
19561;DHT22;9927;47.792;10.616;2023-07-22T09:41:31;26.70;74.90
19561;DHT22;9927;47.792;10.616;2023-07-22T09:44:02;26.60;76.80
19561;DHT22;9927;47.792;10.616;2023-07-22T09:46:33;26.10;76.00
19561;DHT22;9927;47.792;10.616;2023-07-22T09:49:05;25.90;75.60
19561;DHT22;9927;47.792;10.616;2023-07-22T09:51:40;25.90;76.80
19561;DHT22;9927;47.792;10.616;2023-07-22T09:54:27;26.00;75.90
19561;DHT22;9927;47.792;10.616;2023-07-22T09:56:58;25.90;76.30
19561;DHT22;9927;47.792;10.616;2023-07-22T09:59:28;25.80;75.70
19561;DHT22;9927;47.792;10.616;2023-07-22T10:01:57;26.10;80.10
19561;DHT22;9927;47.792;10.616;2023-07-22T10:04:28;26.30;75.10
19561;DHT22;9927;47.792;10.616;2023-07-22T10:06:59;26.50;77.70
19561;DHT22;9927;47.792;10.616;2023-07-22T10:09:27;26.70;77.10
19561;DHT22;9927;47.792;10.616;2023-07-22T10:11:55;26.30;76.30
19561;DHT22;9927;47.792;10.616;2023-07-22T10:14:23;26.20;75.80
19561;DHT22;9927;47.792;10.616;2023-07-22T10:16:50;26.20;79.40
19561;DHT22;9927;47.792;10.616;2023-07-22T10:19:21;26.10;79.90
19561;DHT22;9927;47.792;10.616;2023-07-22T10:21:48;26.10;79.60
19561;DHT22;9927;47.792;10.616;2023-07-22T10:24:17;26.20;78.20
19561;DHT22;9927;47.792;10.616;2023-07-22T10:26:45;26.10;78.70
19561;DHT22;9927;47.792;10.616;2023-07-22T10:29:18;25.80;76.50
19561;DHT22;9927;47.792;10.616;2023-07-22T10:31:46;25.80;78.40
19561;DHT22;9927;47.792;10.616;2023-07-22T10:34:23;25.50;81.50
19561;DHT22;9927;47.792;10.616;2023-07-22T10:36:51;25.60;81.30
19561;DHT22;9927;47.792;10.616;2023-07-22T10:39:25;25.70;81.80
19561;DHT22;9927;47.792;10.616;2023-07-22T10:42:03;25.70;81.40
19561;DHT22;9927;47.792;10.616;2023-07-22T10:44:33;25.70;76.30
19561;DHT22;9927;47.792;10.616;2023-07-22T10:47:02;25.40;76.50
19561;DHT22;9927;47.792;10.616;2023-07-22T10:49:46;25.50;77.30
19561;DHT22;9927;47.792;10.616;2023-07-22T10:52:14;25.60;80.50
19561;DHT22;9927;47.792;10.616;2023-07-22T10:54:41;25.80;77.80
19561;DHT22;9927;47.792;10.616;2023-07-22T10:59:49;25.50;78.40
19561;DHT22;9927;47.792;10.616;2023-07-22T11:02:27;25.50;79.10
19561;DHT22;9927;47.792;10.616;2023-07-22T11:04:59;25.60;84.20
19561;DHT22;9927;47.792;10.616;2023-07-22T11:07:34;26.00;84.60
19561;DHT22;9927;47.792;10.616;2023-07-22T11:10:17;25.90;79.80
19561;DHT22;9927;47.792;10.616;2023-07-22T11:12:46;25.30;78.60
19561;DHT22;9927;47.792;10.616;2023-07-22T11:15:16;25.20;79.70
19561;DHT22;9927;47.792;10.616;2023-07-22T11:17:44;25.40;80.80
19561;DHT22;9927;47.792;10.616;2023-07-22T11:20:12;25.70;78.40
19561;DHT22;9927;47.792;10.616;2023-07-22T11:22:40;25.70;77.90
19561;DHT22;9927;47.792;10.616;2023-07-22T11:25:08;25.50;77.00
19561;DHT22;9927;47.792;10.616;2023-07-22T11:27:36;25.20;76.20
19561;DHT22;9927;47.792;10.616;2023-07-22T11:30:03;25.20;76.70
19561;DHT22;9927;47.792;10.616;2023-07-22T11:32:32;25.20;76.90
19561;DHT22;9927;47.792;10.616;2023-07-22T11:34:59;25.20;78.70
19561;DHT22;9927;47.792;10.616;2023-07-22T11:37:30;25.10;80.10
19561;DHT22;9927;47.792;10.616;2023-07-22T11:40:00;25.30;78.50
19561;DHT22;9927;47.792;10.616;2023-07-22T11:42:28;25.40;82.00
19561;DHT22;9927;47.792;10.616;2023-07-22T11:44:56;25.40;80.70
19561;DHT22;9927;47.792;10.616;2023-07-22T11:47:29;25.40;79.10
19561;DHT22;9927;47.792;10.616;2023-07-22T11:49:58;25.60;78.60
19561;DHT22;9927;47.792;10.616;2023-07-22T11:52:25;25.70;80.10
19561;DHT22;9927;47.792;10.616;2023-07-22T11:54:53;25.80;79.00
19561;DHT22;9927;47.792;10.616;2023-07-22T11:57:21;25.60;81.50
19561;DHT22;9927;47.792;10.616;2023-07-22T11:59:53;25.50;76.00
19561;DHT22;9927;47.792;10.616;2023-07-22T12:02:23;25.40;79.60
19561;DHT22;9927;47.792;10.616;2023-07-22T12:04:59;25.20;75.40
19561;DHT22;9927;47.792;10.616;2023-07-22T12:07:27;25.20;80.90
19561;DHT22;9927;47.792;10.616;2023-07-22T12:09:59;25.00;78.40
19561;DHT22;9927;47.792;10.616;2023-07-22T12:12:33;25.00;81.00
19561;DHT22;9927;47.792;10.616;2023-07-22T12:15:09;24.90;79.10
19561;DHT22;9927;47.792;10.616;2023-07-22T12:18:07;24.90;80.40
19561;DHT22;9927;47.792;10.616;2023-07-22T12:20:34;25.00;80.30
19561;DHT22;9927;47.792;10.616;2023-07-22T12:23:05;25.10;78.90
19561;DHT22;9927;47.792;10.616;2023-07-22T12:25:32;25.10;79.10
19561;DHT22;9927;47.792;10.616;2023-07-22T12:27:59;25.20;79.30
19561;DHT22;9927;47.792;10.616;2023-07-22T12:30:27;24.90;77.10
19561;DHT22;9927;47.792;10.616;2023-07-22T12:32:55;24.80;78.10
19561;DHT22;9927;47.792;10.616;2023-07-22T12:35:22;24.60;77.20
19561;DHT22;9927;47.792;10.616;2023-07-22T12:37:49;24.80;78.60
19561;DHT22;9927;47.792;10.616;2023-07-22T12:40:16;25.10;80.30
19561;DHT22;9927;47.792;10.616;2023-07-22T12:42:43;25.20;79.20
19561;DHT22;9927;47.792;10.616;2023-07-22T12:45:12;25.20;78.90
19561;DHT22;9927;47.792;10.616;2023-07-22T12:47:39;25.40;79.20
19561;DHT22;9927;47.792;10.616;2023-07-22T12:50:07;25.50;77.20
19561;DHT22;9927;47.792;10.616;2023-07-22T12:52:35;25.50;80.20
19561;DHT22;9927;47.792;10.616;2023-07-22T12:55:03;25.70;78.30
19561;DHT22;9927;47.792;10.616;2023-07-22T12:57:30;25.60;79.20
19561;DHT22;9927;47.792;10.616;2023-07-22T12:59:58;25.80;79.70
19561;DHT22;9927;47.792;10.616;2023-07-22T13:02:25;25.90;77.10
19561;DHT22;9927;47.792;10.616;2023-07-22T13:04:53;26.00;75.60
19561;DHT22;9927;47.792;10.616;2023-07-22T13:07:20;26.10;75.00
19561;DHT22;9927;47.792;10.616;2023-07-22T13:09:48;26.20;78.40
19561;DHT22;9927;47.792;10.616;2023-07-22T13:12:17;26.00;76.00
19561;DHT22;9927;47.792;10.616;2023-07-22T13:14:45;25.70;76.60
19561;DHT22;9927;47.792;10.616;2023-07-22T13:17:13;25.70;77.90
19561;DHT22;9927;47.792;10.616;2023-07-22T13:19:40;25.40;75.80
19561;DHT22;9927;47.792;10.616;2023-07-22T13:22:07;25.40;77.70
19561;DHT22;9927;47.792;10.616;2023-07-22T13:24:35;25.50;76.60
19561;DHT22;9927;47.792;10.616;2023-07-22T13:27:03;25.40;80.00
19561;DHT22;9927;47.792;10.616;2023-07-22T13:29:31;25.10;76.60
19561;DHT22;9927;47.792;10.616;2023-07-22T13:31:58;25.20;77.90
19561;DHT22;9927;47.792;10.616;2023-07-22T13:34:25;25.40;77.70
19561;DHT22;9927;47.792;10.616;2023-07-22T13:36:53;25.60;75.90
19561;DHT22;9927;47.792;10.616;2023-07-22T13:39:20;25.30;75.70
19561;DHT22;9927;47.792;10.616;2023-07-22T13:41:47;25.30;75.90
19561;DHT22;9927;47.792;10.616;2023-07-22T13:44:14;25.40;74.80
19561;DHT22;9927;47.792;10.616;2023-07-22T13:46:42;25.30;81.60
19561;DHT22;9927;47.792;10.616;2023-07-22T13:49:09;25.30;77.90
19561;DHT22;9927;47.792;10.616;2023-07-22T13:51:37;25.40;78.60
19561;DHT22;9927;47.792;10.616;2023-07-22T13:54:04;25.10;76.00
19561;DHT22;9927;47.792;10.616;2023-07-22T13:56:31;25.20;77.70
19561;DHT22;9927;47.792;10.616;2023-07-22T13:59:00;25.30;77.50
19561;DHT22;9927;47.792;10.616;2023-07-22T14:01:28;25.60;78.70
19561;DHT22;9927;47.792;10.616;2023-07-22T14:03:55;25.70;79.50
19561;DHT22;9927;47.792;10.616;2023-07-22T14:06:23;25.80;78.20
19561;DHT22;9927;47.792;10.616;2023-07-22T14:08:50;25.70;76.90
19561;DHT22;9927;47.792;10.616;2023-07-22T14:11:18;25.60;76.00
19561;DHT22;9927;47.792;10.616;2023-07-22T14:13:46;25.60;77.90
19561;DHT22;9927;47.792;10.616;2023-07-22T14:16:13;25.80;76.60
19561;DHT22;9927;47.792;10.616;2023-07-22T14:18:49;25.80;77.50
19561;DHT22;9927;47.792;10.616;2023-07-22T14:21:16;25.70;78.70
19561;DHT22;9927;47.792;10.616;2023-07-22T14:23:44;25.60;75.30
19561;DHT22;9927;47.792;10.616;2023-07-22T14:26:11;25.60;75.20
19561;DHT22;9927;47.792;10.616;2023-07-22T14:28:38;25.40;75.60
19561;DHT22;9927;47.792;10.616;2023-07-22T14:31:06;25.50;75.20
19561;DHT22;9927;47.792;10.616;2023-07-22T14:33:33;25.60;76.40
19561;DHT22;9927;47.792;10.616;2023-07-22T14:36:01;25.50;76.60
19561;DHT22;9927;47.792;10.616;2023-07-22T14:38:28;25.60;75.00
19561;DHT22;9927;47.792;10.616;2023-07-22T14:40:56;25.60;74.80
19561;DHT22;9927;47.792;10.616;2023-07-22T14:43:23;25.60;74.60
19561;DHT22;9927;47.792;10.616;2023-07-22T14:45:52;25.70;74.20
19561;DHT22;9927;47.792;10.616;2023-07-22T14:48:19;25.90;74.30
19561;DHT22;9927;47.792;10.616;2023-07-22T14:50:47;25.90;74.20
19561;DHT22;9927;47.792;10.616;2023-07-22T14:53:14;25.80;76.30
19561;DHT22;9927;47.792;10.616;2023-07-22T14:55:41;25.80;75.80
19561;DHT22;9927;47.792;10.616;2023-07-22T14:58:08;25.80;75.90
19561;DHT22;9927;47.792;10.616;2023-07-22T15:00:35;25.90;74.90
19561;DHT22;9927;47.792;10.616;2023-07-22T15:03:03;26.10;75.50
19561;DHT22;9927;47.792;10.616;2023-07-22T15:05:30;26.00;74.20
19561;DHT22;9927;47.792;10.616;2023-07-22T15:07:58;26.20;74.80
19561;DHT22;9927;47.792;10.616;2023-07-22T15:10:25;26.30;75.00
19561;DHT22;9927;47.792;10.616;2023-07-22T15:12:52;26.30;74.50
19561;DHT22;9927;47.792;10.616;2023-07-22T15:15:20;26.10;74.70
19561;DHT22;9927;47.792;10.616;2023-07-22T15:17:48;26.10;74.10
19561;DHT22;9927;47.792;10.616;2023-07-22T15:20:15;26.30;73.40
19561;DHT22;9927;47.792;10.616;2023-07-22T15:22:42;26.50;74.60
19561;DHT22;9927;47.792;10.616;2023-07-22T15:25:10;26.70;73.00
19561;DHT22;9927;47.792;10.616;2023-07-22T15:27:37;26.70;74.80
19561;DHT22;9927;47.792;10.616;2023-07-22T15:30:05;26.70;72.30
19561;DHT22;9927;47.792;10.616;2023-07-22T15:32:32;26.70;74.30
19561;DHT22;9927;47.792;10.616;2023-07-22T15:34:59;26.70;74.40
19561;DHT22;9927;47.792;10.616;2023-07-22T15:37:27;26.80;72.80
19561;DHT22;9927;47.792;10.616;2023-07-22T15:39:54;26.40;74.10